createdAt,value
2022-12-08T00:16:42.726Z,5.9
2022-12-08T00:26:42.694Z,5.9
2022-12-08T00:36:42.771Z,5.9
2022-12-08T00:46:42.757Z,5.9
2022-12-08T00:56:42.784Z,5.9
2022-12-08T01:06:42.795Z,5.9
2022-12-08T01:16:42.900Z,5.9
2022-12-08T01:26:42.862Z,5.9
2022-12-08T01:36:42.900Z,5.9
2022-12-08T01:46:43.012Z,6
2022-12-08T01:56:42.943Z,5.9
2022-12-08T02:06:42.968Z,5.9
2022-12-08T02:26:43.015Z,5.9
2022-12-08T02:36:43.048Z,5.9
2022-12-08T02:46:43.095Z,5.9
2022-12-08T02:56:43.084Z,5.9
2022-12-08T03:16:43.161Z,5.9
2022-12-08T03:36:43.204Z,5.9
2022-12-08T03:46:43.269Z,5.9
2022-12-08T03:56:43.259Z,5.8
2022-12-08T04:06:43.269Z,5.8
2022-12-08T04:16:43.333Z,5.9
2022-12-08T04:26:43.335Z,5.9
2022-12-08T09:16:44.187Z,6
2022-12-08T09:36:44.133Z,5.9
2022-12-08T10:06:44.225Z,5.9
2022-12-08T10:26:44.287Z,5.9
2022-12-08T10:36:44.266Z,6
2022-12-08T10:46:44.386Z,5.9
2022-12-08T10:56:44.323Z,6.1
2022-12-08T11:16:44.556Z,6.1
2022-12-08T11:26:44.427Z,6.1
2022-12-08T11:36:44.435Z,6.1
2022-12-08T11:46:44.439Z,6
2022-12-08T11:56:44.506Z,5.9
2022-12-08T12:06:54.689Z,6
2022-12-08T12:26:44.559Z,6.1
2022-12-08T12:36:44.565Z,6.2
2022-12-08T12:46:44.628Z,6.2
2022-12-08T12:56:44.623Z,6.2
2022-12-08T13:06:44.661Z,6.2
2022-12-08T13:16:44.669Z,6.1
2022-12-08T13:26:44.727Z,6
2022-12-08T13:36:44.752Z,6
2022-12-08T13:57:08.582Z,5.9
2022-12-08T14:06:44.842Z,5.9
2022-12-08T14:26:45.121Z,5.8
2022-12-08T14:36:44.888Z,5.8
2022-12-08T14:46:45.006Z,5.7
2022-12-08T14:56:44.905Z,5.7
2022-12-08T15:06:44.960Z,5.6
2022-12-08T15:16:45.065Z,5.6
2022-12-08T15:26:45.029Z,5.5
2022-12-08T15:36:45.013Z,5.5
2022-12-08T15:46:45.168Z,5.4
2022-12-08T15:57:02.982Z,5.4
2022-12-08T16:16:45.146Z,5.4
2022-12-08T16:27:57.954Z,5.4
2022-12-08T16:36:45.208Z,5.3
2022-12-08T16:46:45.228Z,5.3
2022-12-08T16:56:45.236Z,5.2
2022-12-08T17:16:45.352Z,5.1
2022-12-08T17:26:45.351Z,5
2022-12-08T17:36:45.403Z,4.9
2022-12-08T17:46:52.203Z,4.8
2022-12-08T17:56:45.433Z,4.8
2022-12-08T18:16:45.568Z,4.7
2022-12-08T18:26:45.496Z,4.7
2022-12-08T18:36:45.530Z,4.6
2022-12-08T18:46:45.810Z,4.6
2022-12-08T18:56:45.595Z,4.7
2022-12-08T19:06:45.601Z,4.8
2022-12-08T19:26:45.681Z,4.8
2022-12-08T19:36:45.697Z,4.7
2022-12-08T19:46:45.913Z,4.8
2022-12-08T19:56:45.772Z,4.8
2022-12-08T20:06:45.859Z,4.7
2022-12-08T20:16:45.843Z,4.7
2022-12-08T20:26:45.859Z,4.7
2022-12-08T20:36:45.898Z,4.8
2022-12-08T20:46:49.442Z,4.6
2022-12-08T20:56:48.560Z,4.4
2022-12-08T21:06:46.054Z,4.4
2022-12-08T21:16:46.067Z,4.5
2022-12-08T21:26:46.208Z,4.5
2022-12-08T21:46:46.356Z,4.6
2022-12-08T21:56:46.265Z,4.4
2022-12-08T22:06:46.334Z,4.6
2022-12-08T22:16:46.459Z,4.5
2022-12-08T22:26:46.422Z,4.3
2022-12-08T22:36:46.482Z,4.5
2022-12-08T22:46:46.631Z,4.7
2022-12-08T22:56:46.317Z,4.7
2022-12-08T23:06:46.446Z,4.7
2022-12-08T23:16:46.646Z,4.8
2022-12-08T23:26:46.374Z,4.7
2022-12-08T23:36:46.384Z,4.8
2022-12-08T23:46:46.691Z,4.7
2022-12-08T23:56:46.451Z,4.8
